Time;durP1;ratioP1;P1;durP2;ratioP2;P2;SDS_P1;SDS_P2;PMS_P1;PMS_P2;Temp;Humidity;BMP_temperature;BMP_pressure;BME280_temperature;BME280_humidity;BME280_pressure;Samples;Min_cycle;Max_cycle;Signal;HPM_P1;HPM_P2
2022/10/07 00:00:41;;;;;;;6.80;2.58;;;;;;;13.29;50.61;100973.41;5114258;27;20567;-64
2022/10/07 00:03:09;;;;;;;7.20;2.13;;;;;;;13.26;50.63;100968.28;5114435;28;20134;-63
2022/10/07 00:05:36;;;;;;;7.53;2.10;;;;;;;13.24;50.52;100967.50;5114321;28;20146;-62
2022/10/07 00:08:03;;;;;;;6.22;2.15;;;;;;;13.22;50.81;100966.72;5114105;28;20086;-62
2022/10/07 00:10:30;;;;;;;5.72;1.95;;;;;;;13.19;50.85;100958.94;5114101;28;20066;-60
2022/10/07 00:13:00;;;;;;;8.00;2.40;;;;;;;13.16;50.98;100965.25;5114495;28;20086;-61
2022/10/07 00:15:26;;;;;;;9.18;2.85;;;;;;;13.15;51.15;100963.50;5113233;28;20083;-65
2022/10/07 00:17:53;;;;;;;6.20;2.17;;;;;;;13.12;50.94;100966.31;5114106;28;20043;-62
2022/10/07 00:20:20;;;;;;;7.72;2.42;;;;;;;13.10;51.02;100962.88;5113898;28;20050;-61
2022/10/07 00:22:46;;;;;;;6.95;2.22;;;;;;;13.09;51.21;100961.19;5113821;27;20052;-63
2022/10/07 00:25:13;;;;;;;5.63;2.22;;;;;;;13.07;51.30;100958.59;5114174;28;20572;-61
2022/10/07 00:27:40;;;;;;;7.90;2.53;;;;;;;13.06;51.30;100951.63;5113972;28;20119;-60
2022/10/07 00:30:08;;;;;;;6.25;2.65;;;;;;;13.05;51.46;100947.25;5113663;28;20052;-62
2022/10/07 00:32:34;;;;;;;6.63;3.03;;;;;;;13.06;51.52;100953.38;5113872;28;20083;-63
2022/10/07 00:35:01;;;;;;;8.20;2.53;;;;;;;13.05;51.47;100954.31;5114112;28;20050;-62
2022/10/07 00:37:28;;;;;;;6.88;2.35;;;;;;;13.03;51.40;100939.41;5113538;28;20082;-62
2022/10/07 00:39:55;;;;;;;6.63;2.30;;;;;;;13.03;51.27;100939.41;5113841;28;20051;-61
2022/10/07 00:42:22;;;;;;;6.05;2.15;;;;;;;13.02;51.51;100942.94;5112148;28;20056;-63
2022/10/07 00:44:49;;;;;;;6.72;2.42;;;;;;;13.00;51.37;100941.31;5112272;28;20039;-61
2022/10/07 00:47:28;;;;;;;11.02;3.10;;;;;;;12.95;52.12;100943.34;5113492;28;20075;-62
2022/10/07 00:50:16;;;;;;;6.53;2.47;;;;;;;12.92;52.05;100930.25;5113291;28;20499;-62
2022/10/07 00:52:46;;;;;;;3.88;2.25;;;;;;;12.93;52.03;100929.34;5112367;28;20158;-60
2022/10/07 00:55:18;;;;;;;7.20;2.83;;;;;;;12.89;52.07;100932.13;5113579;28;20100;-61
2022/10/07 00:57:47;;;;;;;8.10;3.20;;;;;;;12.89;51.60;100936.53;5113638;28;20108;-61
2022/10/07 01:00:14;;;;;;;11.05;2.45;;;;;;;12.86;51.83;100923.50;5113224;28;20055;-61
2022/10/07 01:02:41;;;;;;;10.15;2.80;;;;;;;12.85;51.93;100916.47;5113158;28;20060;-62
2022/10/07 01:05:08;;;;;;;9.48;2.72;;;;;;;12.81;52.05;100913.13;5113191;28;20561;-61
2022/10/07 01:07:37;;;;;;;7.68;3.03;;;;;;;12.80;52.09;100913.22;5113113;28;20522;-61
2022/10/07 01:10:05;;;;;;;9.40;2.65;;;;;;;12.78;52.07;100908.00;5113179;28;20480;-61
2022/10/07 01:12:59;;;;;;;6.82;3.00;;;;;;;12.72;52.93;100903.00;5111950;28;20124;-61
2022/10/07 01:15:38;;;;;;;6.00;2.75;;;;;;;12.74;52.27;100899.38;5113239;28;20043;-61
2022/10/07 01:18:25;;;;;;;10.52;2.85;;;;;;;12.71;53.03;100901.31;5113352;28;20574;-63
2022/10/07 01:21:03;;;;;;;11.32;2.53;;;;;;;12.72;53.08;100895.09;5112875;28;20555;-61
2022/10/07 01:24:07;;;;;;;7.72;2.90;;;;;;;12.69;52.99;100889.94;5111643;28;20051;-64
2022/10/07 01:27:00;;;;;;;6.20;2.72;;;;;;;12.68;52.88;100888.25;5112800;28;20044;-63
2022/10/07 01:29:36;;;;;;;5.72;2.35;;;;;;;12.69;53.14;100882.88;5112512;28;20079;-62
2022/10/07 01:32:20;;;;;;;7.95;2.60;;;;;;;12.66;53.14;100888.31;5111351;28;20083;-62
2022/10/07 01:34:51;;;;;;;10.27;3.25;;;;;;;12.69;52.45;100884.66;5113037;28;20139;-61
2022/10/07 01:37:21;;;;;;;8.75;3.00;;;;;;;12.67;52.55;100875.97;5111345;28;20082;-61
2022/10/07 01:39:55;;;;;;;10.07;2.85;;;;;;;12.63;52.80;100873.47;5111279;28;20465;-62
2022/10/07 01:42:25;;;;;;;8.18;3.20;;;;;;;12.63;52.82;100869.94;5111392;28;20043;-61
2022/10/07 01:44:55;;;;;;;8.80;3.20;;;;;;;12.61;52.92;100869.19;5112717;28;20055;-62
2022/10/07 01:47:23;;;;;;;7.53;3.08;;;;;;;12.60;52.77;100863.03;5112132;28;20079;-61
2022/10/07 01:49:50;;;;;;;10.68;2.90;;;;;;;12.59;52.91;100863.97;5112243;28;20474;-61
2022/10/07 01:52:28;;;;;;;8.95;3.10;;;;;;;12.55;53.50;100853.63;5112293;28;20142;-63
2022/10/07 01:55:10;;;;;;;10.55;3.10;;;;;;;12.55;53.67;100858.91;5112144;28;20052;-62
2022/10/07 01:57:46;;;;;;;12.88;2.88;;;;;;;12.53;53.67;100856.34;5112265;28;20047;-61
2022/10/07 02:00:14;;;;;;;9.88;3.05;;;;;;;12.55;53.01;100848.34;5110648;28;20055;-64
2022/10/07 02:02:59;;;;;;;10.07;2.95;;;;;;;12.50;53.53;100838.00;5110623;28;20066;-64
2022/10/07 02:05:45;;;;;;;7.50;2.38;;;;;;;12.46;53.65;100839.06;5112246;28;20092;-61
2022/10/07 02:08:32;;;;;;;6.28;2.67;;;;;;;12.43;53.72;100844.50;5112295;28;20135;-63
2022/10/07 02:11:02;;;;;;;6.68;2.47;;;;;;;12.42;53.51;100827.81;5112110;28;20058;-64
2022/10/07 02:13:42;;;;;;;10.77;3.05;;;;;;;12.36;53.66;100831.59;5112039;28;20468;-61
2022/10/07 02:16:08;;;;;;;8.95;2.95;;;;;;;12.37;53.26;100825.38;5110772;28;20101;-60
2022/10/07 02:18:40;;;;;;;8.52;3.00;;;;;;;12.38;53.42;100831.53;5111588;28;20062;-61
2022/10/07 02:21:09;;;;;;;9.80;3.17;;;;;;;12.35;53.40;100824.63;5111832;28;20079;-60
2022/10/07 02:23:39;;;;;;;6.70;2.38;;;;;;;12.34;53.58;100816.75;5110161;28;20449;-61
2022/10/07 02:26:10;;;;;;;6.82;2.50;;;;;;;12.32;53.54;100824.75;5111603;28;20091;-62
2022/10/07 02:28:40;;;;;;;6.95;2.83;;;;;;;12.31;53.48;100811.63;5111462;28;20075;-61
2022/10/07 02:31:09;;;;;;;9.10;2.90;;;;;;;12.29;53.52;100808.22;5111715;28;20053;-60
2022/10/07 02:33:39;;;;;;;12.73;2.88;;;;;;;12.27;53.41;100805.63;5110106;28;20045;-61
2022/10/07 02:36:17;;;;;;;8.50;2.95;;;;;;;12.22;54.42;100802.34;5111478;28;20107;-61
2022/10/07 02:38:44;;;;;;;10.57;2.95;;;;;;;12.22;53.46;100797.06;5110046;28;20496;-61
2022/10/07 02:41:30;;;;;;;7.40;2.92;;;;;;;12.17;54.34;100788.50;5111593;28;20055;-61
2022/10/07 02:44:19;;;;;;;8.15;2.80;;;;;;;12.12;54.46;100791.38;5111408;28;20081;-61
2022/10/07 02:47:10;;;;;;;6.88;2.60;;;;;;;12.12;54.21;100792.22;5111303;28;20100;-62
2022/10/07 02:49:40;;;;;;;10.60;3.00;;;;;;;12.12;54.13;100796.66;5111248;28;20081;-61
2022/10/07 02:52:12;;;;;;;11.27;2.83;;;;;;;12.09;54.23;100781.81;5108836;28;20482;-62
2022/10/07 02:55:16;;;;;;;8.25;3.00;;;;;;;12.05;54.63;100782.88;5110486;28;20089;-60
2022/10/07 02:57:49;;;;;;;10.07;2.85;;;;;;;12.05;54.58;100785.53;5095331;28;20109;-61
2022/10/07 03:00:16;;;;;;;;;;;;;;;12.06;54.30;100784.59;5110611;28;20052;-61
2022/10/07 03:02:48;;;;;;;6.85;2.80;;;;;;;12.07;54.25;100777.53;5111055;28;20380;-61
2022/10/07 03:05:20;;;;;;;9.17;2.53;;;;;;;12.06;53.98;100781.09;5110945;28;20126;-62
2022/10/07 03:07:51;;;;;;;10.85;2.88;;;;;;;12.03;54.29;100775.94;5111503;28;20150;-62
2022/10/07 03:10:18;;;;;;;7.75;2.42;;;;;;;12.01;54.05;100773.38;5111223;28;20088;-61
2022/10/07 03:12:44;;;;;;;9.77;2.95;;;;;;;12.00;54.06;100771.63;5111165;28;20138;-63
2022/10/07 03:15:11;;;;;;;6.60;2.95;;;;;;;11.98;54.41;100769.09;5111257;28;20535;-61
2022/10/07 03:17:39;;;;;;;10.40;2.70;;;;;;;11.96;54.50;100767.47;5110865;28;20100;-60
2022/10/07 03:20:07;;;;;;;8.65;3.38;;;;;;;11.95;54.80;100773.63;5111022;28;20086;-60
2022/10/07 03:22:34;;;;;;;8.52;2.85;;;;;;;11.94;54.58;100766.66;5111075;28;20079;-63
2022/10/07 03:25:00;;;;;;;8.40;2.53;;;;;;;11.93;54.60;100768.44;5110854;28;20531;-61
2022/10/07 03:27:28;;;;;;;8.45;3.03;;;;;;;11.93;54.67;100760.50;5111002;28;20138;-61
2022/10/07 03:29:57;;;;;;;8.77;2.75;;;;;;;11.93;54.43;100762.31;5109393;28;20101;-61
2022/10/07 03:32:26;;;;;;;9.45;2.40;;;;;;;11.91;54.67;100761.50;5110765;28;20070;-61
2022/10/07 03:34:53;;;;;;;6.97;2.38;;;;;;;11.90;54.83;100755.41;5109698;28;20047;-62
2022/10/07 03:37:23;;;;;;;10.07;2.47;;;;;;;11.88;55.30;100751.97;5111101;28;20087;-61
2022/10/07 03:39:51;;;;;;;7.20;2.72;;;;;;;11.87;54.70;100747.63;5110659;28;20458;-61
2022/10/07 03:42:19;;;;;;;7.13;2.97;;;;;;;11.85;54.81;100750.31;5109777;28;20047;-61
2022/10/07 03:44:48;;;;;;;5.70;2.35;;;;;;;11.85;55.04;100752.13;5110508;28;20079;-61
2022/10/07 03:47:16;;;;;;;4.57;2.13;;;;;;;11.84;54.92;100750.41;5111004;28;20466;-60
2022/10/07 03:49:43;;;;;;;6.70;2.30;;;;;;;11.83;54.98;100746.91;5109442;28;20051;-62
2022/10/07 03:52:10;;;;;;;10.40;2.83;;;;;;;11.82;54.87;100742.53;5110774;28;20096;-61
2022/10/07 03:54:36;;;;;;;7.68;2.83;;;;;;;11.82;55.05;100742.53;5110757;28;20142;-61
2022/10/07 03:57:48;;;;;;;8.32;3.15;;;;;;;11.82;55.03;100731.16;5110515;28;20090;-61
2022/10/07 03:59:52;;;;;;;8.95;2.67;;;;;;;11.80;54.79;100733.88;5110299;28;20079;-62
2022/10/07 04:02:22;;;;;;;8.75;2.60;;;;;;;11.79;54.97;100734.78;5110414;28;20083;-61
2022/10/07 04:04:51;;;;;;;8.55;3.45;;;;;;;11.78;55.06;100727.78;5110741;28;20055;-62
2022/10/07 04:07:20;;;;;;;9.85;2.65;;;;;;;11.75;54.85;100721.81;5110635;28;20047;-60
2022/10/07 04:09:47;;;;;;;7.50;2.97;;;;;;;11.73;55.14;100725.38;5109080;28;20044;-61
2022/10/07 04:12:14;;;;;;;7.78;2.72;;;;;;;11.70;55.12;100720.25;5113919;28;20083;-63
2022/10/07 04:14:41;;;;;;;10.95;2.90;;;;;;;11.68;55.10;100715.97;5114422;28;20087;-62
2022/10/07 04:17:07;;;;;;;8.65;3.35;;;;;;;11.66;55.17;100715.19;5114215;28;20130;-60
2022/10/07 04:19:34;;;;;;;8.65;2.97;;;;;;;11.64;55.46;100722.31;5113993;28;20069;-61
2022/10/07 04:22:01;;;;;;;9.32;2.95;;;;;;;11.62;55.20;100713.63;5114061;28;20482;-61
2022/10/07 04:24:34;;;;;;;10.43;2.80;;;;;;;11.60;55.29;100708.41;5113857;28;20490;-62
2022/10/07 04:27:03;;;;;;;7.03;2.67;;;;;;;11.57;55.36;100709.41;5113902;28;20458;-60
2022/10/07 04:29:31;;;;;;;9.77;2.75;;;;;;;11.55;55.62;100713.88;5112768;28;20059;-64
2022/10/07 04:32:04;;;;;;;8.80;3.17;;;;;;;11.54;55.57;100704.28;5113909;27;20476;-62
2022/10/07 04:34:31;;;;;;;7.78;2.25;;;;;;;11.52;55.60;100707.91;5113850;28;20060;-61
2022/10/07 04:36:59;;;;;;;11.15;3.20;;;;;;;11.51;55.69;100714.13;5113758;28;20097;-60
2022/10/07 04:39:26;;;;;;;6.82;2.85;;;;;;;11.49;55.67;100701.00;5113577;28;20134;-62
2022/10/07 04:43:17;;;;;;;7.85;3.00;;;;;;;11.48;55.68;100704.56;5113786;28;20039;-60
2022/10/07 04:45:00;;;;;;;11.15;2.95;;;;;;;11.46;55.68;100703.75;5113550;28;20071;-61
2022/10/07 04:47:26;;;;;;;8.55;3.53;;;;;;;11.45;55.83;100707.34;5113120;27;20043;-63
2022/10/07 04:49:53;;;;;;;10.05;3.60;;;;;;;11.43;56.04;100693.34;5119437;27;20064;-64
2022/10/07 04:52:20;;;;;;;9.15;3.13;;;;;;;11.43;55.96;100688.06;5113185;28;20562;-61
2022/10/07 04:54:47;;;;;;;8.35;2.80;;;;;;;11.43;56.15;100694.22;5113326;28;20139;-64
2022/10/07 04:57:13;;;;;;;8.43;3.15;;;;;;;11.44;56.13;100695.91;5113293;28;20054;-61
2022/10/07 04:59:40;;;;;;;12.98;4.20;;;;;;;11.45;56.07;100692.34;5113043;28;20142;-61
2022/10/07 05:02:08;;;;;;;12.27;3.42;;;;;;;11.46;56.05;100686.19;5113164;28;20051;-61
2022/10/07 05:04:35;;;;;;;7.60;3.03;;;;;;;11.46;56.12;100685.31;5113334;27;20054;-61
2022/10/07 05:07:03;;;;;;;8.90;3.08;;;;;;;11.47;56.14;100694.91;5113328;28;20059;-62
2022/10/07 05:09:29;;;;;;;11.10;3.38;;;;;;;11.47;56.30;100687.88;5113041;28;20526;-60
2022/10/07 05:11:56;;;;;;;9.57;3.20;;;;;;;11.48;56.14;100683.47;5113057;28;20474;-62
2022/10/07 05:14:23;;;;;;;8.32;3.20;;;;;;;11.48;56.25;100688.75;5112961;28;20094;-62
2022/10/07 05:16:50;;;;;;;8.43;2.97;;;;;;;11.45;56.18;100689.72;5113038;28;20127;-63
2022/10/07 05:19:16;;;;;;;6.55;2.60;;;;;;;11.45;56.01;100683.59;5112751;28;20104;-59
2022/10/07 05:21:43;;;;;;;6.88;3.28;;;;;;;11.44;56.14;100682.75;5112231;28;20083;-64
2022/10/07 05:24:10;;;;;;;11.20;3.38;;;;;;;11.41;56.27;100674.13;5112121;28;20452;-61
2022/10/07 05:26:36;;;;;;;9.57;2.90;;;;;;;11.39;56.46;100681.22;5112771;28;20083;-67
2022/10/07 05:29:03;;;;;;;11.20;3.40;;;;;;;11.38;56.18;100676.88;5112419;28;20123;-60
2022/10/07 05:31:29;;;;;;;8.82;3.10;;;;;;;11.36;56.18;100681.41;5112545;28;20100;-63
2022/10/07 05:33:56;;;;;;;7.88;2.97;;;;;;;11.34;56.33;100671.75;5112372;28;20491;-60
2022/10/07 05:36:23;;;;;;;8.73;3.05;;;;;;;11.31;56.34;100674.56;5113157;28;20086;-60
2022/10/07 05:38:52;;;;;;;9.07;3.40;;;;;;;11.29;56.86;100676.38;5112468;28;20052;-61
2022/10/07 05:41:20;;;;;;;8.75;3.08;;;;;;;11.29;56.34;100667.63;5111254;28;20059;-60
2022/10/07 05:43:47;;;;;;;10.80;3.47;;;;;;;11.27;56.61;100672.09;5112298;28;20105;-60
2022/10/07 05:46:15;;;;;;;8.65;2.80;;;;;;;11.26;56.84;100676.53;5112520;28;20082;-60
2022/10/07 05:48:47;;;;;;;11.10;3.33;;;;;;;11.25;57.43;100679.25;5111010;28;20142;-60
2022/10/07 05:51:14;;;;;;;8.88;3.15;;;;;;;11.26;56.83;100671.28;5112456;28;20075;-62
2022/10/07 05:53:41;;;;;;;7.72;3.00;;;;;;;11.27;56.61;100666.84;5112165;28;20079;-60
2022/10/07 05:56:11;;;;;;;7.40;2.92;;;;;;;11.27;56.80;100667.69;5112228;28;20048;-61
2022/10/07 05:58:38;;;;;;;9.90;3.35;;;;;;;11.28;56.78;100665.91;5112233;28;20104;-60
2022/10/07 06:01:06;;;;;;;9.60;3.00;;;;;;;11.27;56.84;100658.94;5112099;28;20083;-61
2022/10/07 06:03:39;;;;;;;13.50;3.30;;;;;;;11.29;56.79;100660.56;5112013;28;20044;-60
2022/10/07 06:06:07;;;;;;;9.27;3.10;;;;;;;11.28;56.86;100658.00;5111945;28;20083;-61
2022/10/07 06:08:34;;;;;;;6.32;2.97;;;;;;;11.28;56.93;100655.38;5111288;28;20047;-61
2022/10/07 06:13:59;;;;;;;13.18;3.58;;;;;;;11.32;57.02;100652.53;5056371;28;20541;-60
2022/10/07 06:16:26;;;;;;;9.95;3.25;;;;;;;11.33;56.90;100658.66;5111847;28;20104;-61
2022/10/07 06:18:53;;;;;;;12.05;3.97;;;;;;;11.34;57.26;100657.75;5111490;28;20050;-62
2022/10/07 06:21:26;;;;;;;11.20;3.20;;;;;;;11.33;57.25;100656.88;5111875;28;20120;-59
2022/10/07 06:23:55;;;;;;;11.95;2.80;;;;;;;11.37;57.09;100656.75;5111785;28;20066;-60
2022/10/07 06:26:21;;;;;;;7.78;3.55;;;;;;;11.38;57.14;100661.06;5111643;28;20142;-61
2022/10/07 06:28:48;;;;;;;10.45;3.20;;;;;;;11.38;57.10;100659.31;5111621;28;20051;-60
2022/10/07 06:31:21;;;;;;;14.75;3.00;;;;;;;11.38;57.38;100663.72;5111662;28;20093;-63
2022/10/07 06:33:51;;;;;;;10.93;3.30;;;;;;;11.40;57.20;100661.88;5111471;28;20138;-61
2022/10/07 06:36:18;;;;;;;7.65;3.45;;;;;;;11.41;57.05;100664.44;5111619;28;20051;-60
2022/10/07 06:38:51;;;;;;;7.03;3.10;;;;;;;11.41;57.73;100658.31;5111473;28;20083;-60
2022/10/07 06:41:18;;;;;;;9.75;3.20;;;;;;;11.45;57.08;100667.78;5110392;28;20468;-60
2022/10/07 06:43:44;;;;;;;11.18;3.28;;;;;;;11.47;57.30;100660.66;5111206;27;20138;-60
2022/10/07 06:46:18;;;;;;;7.53;2.88;;;;;;;11.46;58.06;100667.72;5110873;28;20086;-64
2022/10/07 06:48:45;;;;;;;14.30;3.40;;;;;;;11.50;57.27;100673.69;5109917;28;20052;-62
2022/10/07 06:51:18;;;;;;;8.40;3.28;;;;;;;11.51;57.83;100669.28;5111172;28;20476;-61
2022/10/07 06:53:49;;;;;;;8.05;2.92;;;;;;;11.54;57.43;100670.00;5111254;28;20427;-60
2022/10/07 06:56:15;;;;;;;9.27;2.88;;;;;;;11.56;57.32;100667.28;5111000;28;20065;-62
2022/10/07 06:58:42;;;;;;;9.05;3.38;;;;;;;11.59;57.47;100665.34;5110777;28;20070;-65
2022/10/07 07:01:09;;;;;;;9.43;3.30;;;;;;;11.61;57.43;100675.84;5110941;28;20100;-60
2022/10/07 07:03:36;;;;;;;10.23;3.20;;;;;;;11.66;57.40;100673.84;5109527;28;20047;-60
2022/10/07 07:06:03;;;;;;;10.32;3.05;;;;;;;11.70;57.62;100679.84;5110821;28;20089;-60
2022/10/07 07:08:31;;;;;;;10.38;2.83;;;;;;;11.71;57.51;100666.56;5110942;28;20476;-61
2022/10/07 07:11:34;;;;;;;10.23;2.95;;;;;;;11.73;58.02;100661.22;5110814;28;20073;-60
2022/10/07 07:13:53;;;;;;;10.05;2.70;;;;;;;11.81;57.43;100669.63;5110884;28;20492;-61
2022/10/07 07:16:21;;;;;;;12.27;3.85;;;;;;;11.84;57.57;100660.69;5111404;28;20055;-62
2022/10/07 07:18:55;;;;;;;11.88;3.05;;;;;;;11.86;58.03;100656.22;5110871;28;20054;-61
2022/10/07 07:21:23;;;;;;;7.03;2.90;;;;;;;11.91;57.57;100654.22;5110884;28;20047;-62
2022/10/07 07:23:50;;;;;;;13.10;2.97;;;;;;;11.95;57.48;100663.69;5111129;28;20126;-63
2022/10/07 07:26:17;;;;;;;11.27;3.70;;;;;;;11.99;57.40;100659.09;5110959;28;20048;-60
2022/10/07 07:29:00;;;;;;;8.55;2.85;;;;;;;12.01;58.17;100657.25;5110740;28;20485;-61
2022/10/07 07:31:28;;;;;;;9.33;3.50;;;;;;;12.07;57.41;100651.72;5110786;28;20082;-61
2022/10/07 07:33:59;;;;;;;8.10;2.88;;;;;;;12.11;57.51;100652.41;5109975;28;20499;-61
2022/10/07 07:36:28;;;;;;;12.77;3.50;;;;;;;12.15;57.59;100664.53;5109425;28;20055;-60
2022/10/07 07:39:00;;;;;;;9.40;3.53;;;;;;;12.19;57.49;100654.69;5110721;28;20054;-60
2022/10/07 07:41:29;;;;;;;8.18;3.42;;;;;;;12.23;57.66;100659.72;5110708;28;20051;-63
2022/10/07 07:43:57;;;;;;;10.90;3.30;;;;;;;12.27;57.14;100657.81;5109581;28;20130;-61
2022/10/07 07:46:28;;;;;;;10.43;3.17;;;;;;;12.32;57.59;100665.47;5112665;28;20051;-59
2022/10/07 07:48:55;;;;;;;9.73;3.25;;;;;;;12.36;57.42;100649.41;5114787;28;20048;-61
2022/10/07 07:51:21;;;;;;;6.90;3.03;;;;;;;12.40;57.38;100662.47;5114798;28;20055;-61
2022/10/07 07:53:49;;;;;;;12.50;3.17;;;;;;;12.46;57.09;100662.16;5114620;28;20094;-60
2022/10/07 07:56:16;;;;;;;13.77;3.83;;;;;;;12.48;57.44;100655.88;5114343;28;20135;-61
2022/10/07 07:58:43;;;;;;;9.88;3.00;;;;;;;12.52;57.44;100651.25;5114428;28;20105;-61
2022/10/07 08:01:12;;;;;;;8.82;3.20;;;;;;;12.57;57.55;100659.84;5114288;28;20055;-60
2022/10/07 08:03:42;;;;;;;6.60;3.20;;;;;;;12.61;57.56;100650.81;5114634;28;20055;-60
2022/10/07 08:06:10;;;;;;;9.85;3.60;;;;;;;12.66;57.41;100652.34;5113377;28;20055;-60
2022/10/07 08:08:38;;;;;;;9.93;3.58;;;;;;;12.71;57.14;100650.34;5113213;28;20112;-62
2022/10/07 08:11:07;;;;;;;10.23;3.72;;;;;;;12.74;57.38;100651.03;5114114;28;20056;-61
2022/10/07 08:13:35;;;;;;;12.50;3.50;;;;;;;12.80;57.37;100649.00;5114205;28;20079;-60
2022/10/07 08:16:05;;;;;;;10.52;3.17;;;;;;;12.83;57.43;100641.78;5114077;28;20491;-60
2022/10/07 08:18:32;;;;;;;8.70;3.13;;;;;;;12.88;57.46;100646.81;5114275;28;20062;-60
2022/10/07 08:21:02;;;;;;;8.30;2.95;;;;;;;12.92;57.38;100637.78;5114015;28;20051;-61
2022/10/07 08:23:29;;;;;;;7.55;3.00;;;;;;;12.97;57.41;100641.03;5112649;28;20135;-60
2022/10/07 08:25:57;;;;;;;11.27;3.00;;;;;;;13.01;57.47;100637.28;5114088;28;20073;-61
2022/10/07 08:28:24;;;;;;;8.95;3.17;;;;;;;13.07;57.31;100636.13;5113955;28;20146;-64
2022/10/07 08:31:00;;;;;;;9.50;2.75;;;;;;;13.12;57.54;100631.44;5113929;28;20047;-62
2022/10/07 08:33:34;;;;;;;13.80;3.30;;;;;;;13.19;57.81;100631.13;5112578;28;20101;-61
2022/10/07 08:36:03;;;;;;;9.50;3.20;;;;;;;13.25;57.73;100634.28;5112917;28;20047;-62
2022/10/07 08:38:36;;;;;;;12.05;3.17;;;;;;;13.32;58.03;100628.66;5113086;28;20134;-60
2022/10/07 08:41:23;;;;;;;8.18;3.30;;;;;;;13.38;58.01;100628.34;5112477;28;20093;-61
2022/10/07 08:43:50;;;;;;;10.32;3.28;;;;;;;13.51;57.64;100620.59;5113613;28;20130;-61
2022/10/07 08:46:25;;;;;;;9.75;3.03;;;;;;;13.58;58.17;100619.31;5114036;28;20373;-60
2022/10/07 08:48:57;;;;;;;10.90;2.92;;;;;;;13.67;57.90;100617.94;5113582;28;20130;-63
2022/10/07 08:51:42;;;;;;;10.82;3.28;;;;;;;13.76;57.78;100619.22;5113815;28;20424;-60
2022/10/07 08:54:13;;;;;;;14.10;3.35;;;;;;;13.87;57.80;100608.03;5113583;28;20487;-61
2022/10/07 08:56:42;;;;;;;13.15;3.63;;;;;;;13.93;57.54;100608.53;5113378;28;20082;-60
2022/10/07 08:59:30;;;;;;;9.05;3.03;;;;;;;13.99;57.33;100609.13;5113192;28;20120;-60
2022/10/07 09:02:21;;;;;;;12.43;3.28;;;;;;;14.10;58.11;100597.91;5113624;28;20052;-61
2022/10/07 09:04:54;;;;;;;9.70;3.25;;;;;;;14.21;57.07;100603.44;5113290;28;20134;-60
2022/10/07 09:07:44;;;;;;;11.48;2.97;;;;;;;14.26;57.31;100603.16;5113117;28;20096;-60
2022/10/07 09:10:22;;;;;;;12.20;2.90;;;;;;;14.35;57.39;100602.59;5113292;27;20094;-60
2022/10/07 09:13:05;;;;;;;13.38;2.90;;;;;;;14.44;56.97;100591.44;5112867;28;20504;-61
2022/10/07 09:15:51;;;;;;;9.82;2.80;;;;;;;14.52;57.32;100595.44;5113395;28;20116;-60
2022/10/07 09:18:34;;;;;;;8.65;3.22;;;;;;;14.61;57.84;100589.59;5112902;28;20055;-61
2022/10/07 09:21:04;;;;;;;9.48;2.95;;;;;;;14.75;57.37;100582.59;5113077;28;20348;-61
2022/10/07 09:23:33;;;;;;;9.10;2.85;;;;;;;14.86;57.21;100588.13;5111583;28;20040;-61
2022/10/07 09:26:00;;;;;;;12.85;2.83;;;;;;;14.96;56.96;100581.28;5113066;28;20428;-60
2022/10/07 09:28:32;;;;;;;9.93;3.13;;;;;;;15.05;57.02;100582.53;5112526;28;20052;-63
2022/10/07 09:30:59;;;;;;;11.68;2.80;;;;;;;15.18;56.67;100581.75;5109931;28;20047;-59
2022/10/07 09:33:28;;;;;;;9.15;2.72;;;;;;;15.28;56.52;100584.69;5112651;28;20097;-60
2022/10/07 09:36:04;;;;;;;10.95;2.70;;;;;;;15.39;56.44;100571.56;5111523;28;20101;-62
2022/10/07 09:38:43;;;;;;;12.63;2.80;;;;;;;15.47;56.24;100563.97;5111001;28;20134;-62
2022/10/07 09:41:21;;;;;;;9.48;2.63;;;;;;;15.58;55.95;100565.06;5111207;28;20044;-61
2022/10/07 09:43:57;;;;;;;10.80;2.63;;;;;;;15.70;56.01;100558.13;5111297;28;20173;-60
2022/10/07 09:46:41;;;;;;;13.63;2.80;;;;;;;15.75;55.86;100554.19;5111356;28;20044;-60
2022/10/07 09:49:30;;;;;;;9.75;3.03;;;;;;;15.87;55.70;100556.97;5112216;27;20047;-60
2022/10/07 09:52:02;;;;;;;7.00;2.80;;;;;;;15.99;55.92;100548.25;5111043;28;20086;-60
2022/10/07 09:54:31;;;;;;;10.20;2.30;;;;;;;16.10;55.84;100547.50;5112171;28;20142;-60
2022/10/07 09:57:01;;;;;;;10.50;2.22;;;;;;;16.21;55.55;100557.41;5110414;28;20051;-61
2022/10/07 09:59:32;;;;;;;12.65;2.22;;;;;;;16.30;54.89;100545.31;5111530;28;20134;-62
2022/10/07 10:02:21;;;;;;;10.43;2.88;;;;;;;16.37;54.28;100545.75;5111657;28;20116;-59
2022/10/07 10:04:56;;;;;;;11.52;3.30;;;;;;;16.50;54.23;100557.22;5108881;28;20048;-60
2022/10/07 10:07:45;;;;;;;9.55;2.78;;;;;;;16.57;54.17;100546.16;5108933;28;20090;-60
2022/10/07 10:10:20;;;;;;;9.23;2.90;;;;;;;16.68;53.95;100546.25;5108441;28;20039;-61
2022/10/07 10:12:50;;;;;;;10.75;2.78;;;;;;;16.78;54.34;100543.78;5109695;28;20407;-61
2022/10/07 10:15:40;;;;;;;10.52;2.40;;;;;;;16.83;54.21;100539.00;5111643;28;20057;-60
2022/10/07 10:18:40;;;;;;;11.18;2.38;;;;;;;16.95;54.41;100545.25;5108195;28;20173;-60
2022/10/07 10:21:19;;;;;;;11.23;2.53;;;;;;;17.08;53.56;100533.78;5109344;28;20071;-61
2022/10/07 10:23:52;;;;;;;12.35;2.63;;;;;;;17.21;53.35;100528.41;5107973;28;20139;-64
2022/10/07 10:26:36;;;;;;;10.65;2.85;;;;;;;17.31;53.15;100529.44;5109787;28;20135;-61
2022/10/07 10:29:06;;;;;;;9.32;2.60;;;;;;;17.43;53.47;100525.03;5109833;28;20079;-60
2022/10/07 10:31:39;;;;;;;11.32;3.45;;;;;;;17.52;53.32;100518.16;5108896;28;20105;-64
2022/10/07 10:34:34;;;;;;;10.75;2.95;;;;;;;17.62;53.11;100515.66;5109155;28;20055;-61
2022/10/07 10:37:10;;;;;;;11.02;2.88;;;;;;;17.76;52.74;100509.31;5109310;28;20548;-63
2022/10/07 10:39:51;;;;;;;12.15;2.97;;;;;;;17.88;53.26;100504.84;5111001;28;20179;-61
2022/10/07 10:42:27;;;;;;;11.68;2.95;;;;;;;18.02;53.41;100512.63;5109080;28;20086;-59
2022/10/07 10:45:06;;;;;;;9.43;2.40;;;;;;;18.16;52.48;100508.94;5109415;28;20142;-60
2022/10/07 10:47:46;;;;;;;9.15;2.80;;;;;;;18.32;52.18;100495.28;5107609;28;20097;-61
2022/10/07 10:50:31;;;;;;;9.75;2.30;;;;;;;18.49;51.72;100495.78;5109485;28;20185;-61
2022/10/07 10:53:23;;;;;;;9.95;2.70;;;;;;;18.61;50.24;100497.47;5109456;28;20082;-61
2022/10/07 10:56:04;;;;;;;11.13;2.30;;;;;;;18.73;50.64;100495.63;5109123;28;20094;-61
2022/10/07 10:58:43;;;;;;;10.43;2.22;;;;;;;18.83;50.67;100490.41;5111262;28;20120;-61
2022/10/07 11:01:29;;;;;;;11.52;3.20;;;;;;;18.92;50.64;100488.84;5110354;28;20082;-61
2022/10/07 11:04:17;;;;;;;12.70;2.83;;;;;;;19.09;50.92;100470.63;5110790;28;20055;-60
2022/10/07 11:06:49;;;;;;;10.35;2.70;;;;;;;19.28;51.01;100469.97;5111020;28;20093;-60
2022/10/07 11:09:31;;;;;;;13.82;3.00;;;;;;;19.50;49.88;100469.03;5111279;28;20052;-61
2022/10/07 11:12:03;;;;;;;8.82;2.20;;;;;;;19.85;51.78;100460.84;5111114;28;20100;-64
2022/10/07 11:14:34;;;;;;;11.77;2.97;;;;;;;20.26;51.67;100451.09;5109773;28;20502;-62
2022/10/07 11:17:05;;;;;;;9.70;2.58;;;;;;;20.73;50.81;100448.84;5109676;28;20131;-62
2022/10/07 11:19:38;;;;;;;9.60;2.58;;;;;;;21.27;49.88;100445.88;5110884;28;20048;-60
2022/10/07 11:22:10;;;;;;;;;;;;;;;21.79;50.52;100442.06;5114790;28;20078;-60
2022/10/07 11:24:49;;;;;;;8.65;2.17;;;;;;;22.45;48.32;100437.59;5115029;28;19926;-60
2022/10/07 11:27:28;;;;;;;10.48;3.38;;;;;;;23.01;45.22;100432.19;5115000;28;20051;-62
2022/10/07 11:30:21;;;;;;;8.40;2.42;;;;;;;23.55;44.67;100430.50;5113220;28;20488;-61
2022/10/07 11:32:54;;;;;;;8.02;2.90;;;;;;;24.04;44.44;100416.53;5114741;28;20039;-63
2022/10/07 11:35:24;;;;;;;;;;;;;;;24.42;45.80;100418.94;5114951;28;20108;-60
2022/10/07 11:37:57;;;;;;;6.97;2.38;;;;;;;24.85;42.37;100402.75;5114952;28;19967;-61
2022/10/07 11:40:28;;;;;;;12.55;3.13;;;;;;;25.16;42.54;100403.13;5114691;28;20112;-63
2022/10/07 11:43:03;;;;;;;8.82;2.17;;;;;;;25.45;42.05;100407.16;5114881;28;20094;-62
2022/10/07 11:45:39;;;;;;;7.57;2.78;;;;;;;25.70;40.84;100399.06;5114669;28;20393;-61
2022/10/07 11:48:22;;;;;;;10.27;3.10;;;;;;;25.99;40.16;100394.94;5114931;28;20056;-62